Anderson, Alabama
Current Conditions -  °F | °C
As of 2:53 PM on Tuesday 21 Oct 2014 (Local Time) from KMSL Reporting Station
Clear Clear  
Wind Chill: 76°   Ceiling: Unl
Heat Index: 76°   Visibility: 10mi
Dew Point: 43°   Wind: 9mph
Humidity: 31%   Direction: 10°N
Pressure: 30.03"   Gusts: NA
Location:  34.93°N, 87.27°W
Report Text: KMSL 211953Z AUTO 01008KT 10SM CLR 24/06 A3003 RMK AO2 SLP165 T02440061
Loading
Personal Weather Stations






























Interactive Weather Map
Tropical Storm Tracking
New forecast layout! Learn more

10-Day Weather Forecast

Advertisements
Track Severe Weather on mobile